Pagrindinis puslapis
METAR-TAF:

METAR-TAF

Oro uostai :

Pernu, Estija

platuma: 58-25-09N, ilguma: 024-28-22E, Aukštis: 14 m

Dabartinis oras

Ataskaita buvo paskelbta 5 valandos ir 11 minutes, ne 13:50 UTC
Vėjas 23 kt iš Pietvakarių
Temperatūra 6°C
Drėgmė 81%
Slėgis 996 hPa
Matomumas 10 km arba daugiau
Su prošvaistėmis ne aukštis 2000 ft

METAR: EEPU 171350Z 23023KT 9999 BKN020 06/03 Q0996

Laikas: 21:01 (19:01 UTC)


TAF: trūkstamas

Orai ataskaitas ir orų prognozės (METAR, TAF).

turimą stotys yra geltonos ir raudonos taškus žemėlapyje.

Perkelti pele per norėdami pamatyti stoties vardą.

Tada spustelėkite, norėdami matyti oro stebėjimo ir prognozės.

Norėdami pakeisti žemėlapį: spustelėkite ant žalios mygtukų su juodo kryžiaus žemyn,; žalią mygtuką su brūkšneliu, jei norite nutolinti; arba žalių rodyklių gretimoms žemėlapius.


METAR-TAF: